Terminal Aerodrome Forecast
Issued by NWS

Home | Current Version | Previous Version | Text Only | Print | Product List | Glossary On
Versions: 1 2 3 4 5 6 7 8 9 10 11 12 13 14
000
FTAK31 PAJN 290500
TAFAYA
TAF
PAYA 290539Z 2906/3006 07006KT P6SM OVC035
      TEMPO 2906/2909 6SM -RASN OVC030
     FM291800 08008KT 4SM -SNRA BKN025 OVC040
     FM300300 10005KT 3SM -SN OVC015
      AMD LTD TO CLD VIS AND WIND 2906/2910=

USA.gov is the U.S. government's official web portal to all federal, state and local government web resources and services.